Webcam Flughafen St.Gallen-Altenrhein

Live-Bilder und Zeitraffer LSZR / ACH.

 

Live aus Altenrhein
LIVE
LSZR 140020Z AUTO 09004KT 050V120 CAVOK 01/M01 Q1004
Zeitraffer heute
2019-11-14 00:14:39
LSZR 132250Z AUTO VRB05KT 9999 NCD 03/M01 Q1005